| time (UTC) | temp C | wind direction | speed KPH | gust KPH | rain 1hr cm | rain 24hr cm | rain mn cm | humidity % | barometer mb |
| 20260906225837 | 17 | 79 | 8.0 | 8.0 | 0.00 | 0.03 | 0.03 | 74 | 1014.9 |
| 20260906225307 | 17 | 49 | 14.5 | 19.3 | 0.00 | 0.03 | 0.03 | 73 | 1015.0 |
| 20260906224807 | 17 | 73 | 9.7 | 12.9 | 0.00 | 0.03 | 0.03 | 72 | 1015.0 |
| 20260906224307 | 17 | 62 | 9.7 | 19.3 | 0.00 | 0.03 | 0.03 | 73 | 1014.8 |
| 20260906223737 | 17 | 49 | 9.7 | 19.3 | 0.00 | 0.03 | 0.03 | 73 | 1014.9 |
| 20260906223207 | 17 | 63 | 4.8 | 9.7 | 0.00 | 0.03 | 0.03 | 73 | 1014.8 |
| 20260906222707 | 17 | 54 | 3.2 | 4.8 | 0.00 | 0.03 | 0.03 | 74 | 1014.8 |
| 20260906222207 | 17 | 59 | 3.2 | 3.2 | 0.00 | 0.03 | 0.03 | 73 | 1014.8 |
| 20260906221637 | 17 | 49 | 3.2 | 8.0 | 0.00 | 0.03 | 0.03 | 76 | 1014.7 |
| 20260906221137 | 17 | 43 | 4.8 | 4.8 | 0.00 | 0.03 | 0.03 | 76 | 1014.7 |
| 20260906220607 | 17 | 63 | 1.6 | 3.2 | 0.00 | 0.03 | 0.03 | 76 | 1014.7 |
| 20260906220107 | 17 | 48 | 9.7 | 14.5 | 0.00 | 0.03 | 0.03 | 76 | 1014.6 |
| 20260906215537 | 17 | 66 | 4.8 | 19.3 | 0.00 | 0.03 | 0.03 | 77 | 1014.6 |
| 20260906215007 | 16 | 68 | 8.0 | 14.5 | 0.00 | 0.03 | 0.03 | 79 | 1014.7 |
| 20260906214507 | 16 | 53 | 8.0 | 8.0 | 0.00 | 0.03 | 0.03 | 80 | 1014.9 |
| 20260906213937 | 16 | 54 | 11.3 | 19.3 | 0.00 | 0.03 | 0.03 | 79 | 1015.0 |
| 20260906213407 | 16 | 52 | 11.3 | 14.5 | 0.00 | 0.03 | 0.03 | 80 | 1015.0 |
| 20260906212837 | 16 | 64 | 9.7 | 14.5 | 0.00 | 0.03 | 0.03 | 81 | 1015.0 |
| 20260906212337 | 15 | 61 | 11.3 | 14.5 | 0.00 | 0.03 | 0.03 | 81 | 1015.2 |
| 20260906211807 | 15 | 71 | 4.8 | 14.5 | 0.00 | 0.03 | 0.03 | 83 | 1015.3 |
| 20260906211237 | 15 | 71 | 3.2 | 4.8 | 0.00 | 0.03 | 0.03 | 82 | 1015.2 |
| 20260906210707 | 15 | 71 | 11.3 | 14.5 | 0.00 | 0.03 | 0.03 | 83 | 1015.2 |
| 20260906210137 | 15 | 71 | 11.3 | 19.3 | 0.00 | 0.03 | 0.03 | 83 | 1015.2 |
| 20260906205637 | 15 | 55 | 9.7 | 11.3 | 0.00 | 0.03 | 0.03 | 84 | 1015.2 |
| 20260906205107 | 15 | 62 | 11.3 | 19.3 | 0.00 | 0.03 | 0.03 | 84 | 1015.2 |
| 20260906204537 | 15 | 63 | 11.3 | 19.3 | 0.00 | 0.03 | 0.03 | 84 | 1015.2 |
| 20260906204037 | 15 | 64 | 14.5 | 19.3 | 0.00 | 0.03 | 0.03 | 85 | 1015.4 |
| 20260906203507 | 15 | 67 | 9.7 | 14.5 | 0.00 | 0.03 | 0.03 | 85 | 1015.5 |
| 20260906203007 | 15 | 60 | 11.3 | 12.9 | 0.00 | 0.03 | 0.03 | 86 | 1015.5 |
| 20260906202437 | 14 | 87 | 8.0 | 12.9 | 0.00 | 0.03 | 0.03 | 87 | 1015.9 |
| 20260906201907 | 14 | 103 | 4.8 | 9.7 | 0.00 | 0.03 | 0.03 | 87 | 1016.0 |
| 20260906201407 | 14 | 103 | 3.2 | 4.8 | 0.00 | 0.03 | 0.03 | 88 | 1016.1 |
| 20260906200837 | 14 | 103 | 4.8 | 4.8 | 0.00 | 0.03 | 0.03 | 89 | 1016.1 |
| 20260906200307 | 14 | 103 | 4.8 | 4.8 | 0.00 | 0.03 | 0.03 | 89 | 1016.1 |
| 20260906195737 | 13 | 103 | 4.8 | 4.8 | 0.03 | 0.03 | 0.03 | 89 | 1016.1 |
| 20260906195237 | 13 | 103 | 4.8 | 9.7 | 0.03 | 0.03 | 0.03 | 88 | 1016.3 |
| 20260906194707 | 14 | 101 | 4.8 | 9.7 | 0.03 | 0.03 | 0.03 | 89 | 1016.3 |
| 20260906194207 | 14 | 101 | 3.2 | 3.2 | 0.03 | 0.03 | 0.03 | 89 | 1016.2 |
| 20260906193637 | 13 | 101 | 4.8 | 4.8 | 0.03 | 0.03 | 0.03 | 89 | 1016.2 |
| 20260906193137 | 13 | 101 | 8.0 | 9.7 | 0.03 | 0.03 | 0.03 | 89 | 1016.3 |
| 20260906192607 | 14 | 98 | 9.7 | 11.3 | 0.03 | 0.03 | 0.03 | 89 | 1016.4 |
| 20260906192037 | 14 | 95 | 3.2 | 4.8 | 0.03 | 0.03 | 0.03 | 90 | 1016.3 |
| 20260906191507 | 13 | 103 | 3.2 | 4.8 | 0.03 | 0.03 | 0.03 | 90 | 1016.4 |
| 20260906190937 | 13 | 105 | 9.7 | 11.3 | 0.03 | 0.03 | 0.03 | 89 | 1016.5 |
| 20260906190437 | 13 | 105 | 4.8 | 11.3 | 0.03 | 0.03 | 0.03 | 89 | 1016.6 |
| 20260906185907 | 13 | 106 | 8.0 | 9.7 | 0.00 | 0.00 | 0.00 | 88 | 1016.7 |
| 20260906185407 | 13 | 106 | 9.7 | 9.7 | 0.00 | 0.00 | 0.00 | 88 | 1016.7 |
| 20260906184907 | 13 | 107 | 8.0 | 9.7 | 0.00 | 0.00 | 0.00 | 87 | 1016.8 |
| 20260906184337 | 13 | 111 | 4.8 | 9.7 | 0.00 | 0.00 | 0.00 | 86 | 1016.8 |
| 20260906183807 | 13 | 116 | 4.8 | 4.8 | 0.00 | 0.00 | 0.00 | 85 | 1016.9 |
| 20260906183307 | 14 | 117 | 8.0 | 9.7 | 0.00 | 0.00 | 0.00 | 84 | 1017.0 |
| 20260906182737 | 14 | 118 | 4.8 | 9.7 | 0.00 | 0.00 | 0.00 | 83 | 1017.1 |
| 20260906182237 | 14 | 118 | 8.0 | 11.3 | 0.00 | 0.00 | 0.00 | 82 | 1017.2 |
| 20260906181707 | 14 | 119 | 8.0 | 12.9 | 0.00 | 0.00 | 0.00 | 82 | 1017.3 |
| 20260906181207 | 14 | 119 | 9.7 | 11.3 | 0.00 | 0.00 | 0.00 | 81 | 1017.4 |
| 20260906180707 | 14 | 121 | 8.0 | 11.3 | 0.00 | 0.00 | 0.00 | 82 | 1017.4 |
| 20260906180207 | 14 | 121 | 8.0 | 11.3 | 0.00 | 0.00 | 0.00 | 82 | 1017.3 |
| 20260906175637 | 14 | 121 | 8.0 | 8.0 | 0.00 | 0.00 | 0.00 | 82 | 1017.4 |
| 20260906175107 | 14 | 122 | 4.8 | 11.3 | 0.00 | 0.00 | 0.00 | 83 | 1017.5 |
| 20260906174607 | 14 | 125 | 8.0 | 12.9 | 0.00 | 0.00 | 0.00 | 84 | 1017.5 |
| 20260906174107 | 14 | 126 | 3.2 | 11.3 | 0.00 | 0.00 | 0.00 | 84 | 1017.5 |
| 20260906173537 | 14 | 128 | 4.8 | 4.8 | 0.00 | 0.00 | 0.00 | 86 | 1017.5 |
| 20260906173037 | 13 | 128 | 4.8 | 8.0 | 0.00 | 0.00 | 0.00 | 87 | 1017.5 |
| 20260906172507 | 13 | 129 | 3.2 | 4.8 | 0.00 | 0.00 | 0.00 | 87 | 1017.5 |
| 20260906171937 | 13 | 129 | 4.8 | 8.0 | 0.00 | 0.00 | 0.00 | 88 | 1017.7 |
| 20260906171407 | 13 | 128 | 3.2 | 4.8 | 0.00 | 0.00 | 0.00 | 88 | 1017.7 |
| 20260906170838 | 13 | 128 | 8.0 | 8.0 | 0.00 | 0.00 | 0.00 | 89 | 1017.9 |
| 20260906170307 | 13 | 127 | 4.8 | 11.3 | 0.00 | 0.00 | 0.00 | 89 | 1018.0 |
| 20260906165807 | 13 | 127 | 8.0 | 11.3 | 0.00 | 0.00 | 0.00 | 90 | 1018.2 |
| 20260906165237 | 13 | 127 | 8.0 | 14.5 | 0.00 | 0.00 | 0.00 | 91 | 1018.2 |
| 20260906164707 | 13 | 125 | 9.7 | 11.3 | 0.00 | 0.00 | 0.00 | 91 | 1018.1 |
| 20260906164207 | 13 | 113 | 3.2 | 4.8 | 0.00 | 0.00 | 0.00 | 92 | 1018.0 |
| 20260906163637 | 12 | 113 | 4.8 | 4.8 | 0.00 | 0.00 | 0.00 | 92 | 1018.1 |
| 20260906163137 | 12 | 113 | 4.8 | 4.8 | 0.00 | 0.00 | 0.00 | 93 | 1018.2 |
| 20260906162607 | 12 | 113 | 3.2 | 4.8 | 0.00 | 0.00 | 0.00 | 93 | 1018.3 |
| 20260906162108 | 12 | 113 | 3.2 | 3.2 | 0.00 | 0.00 | 0.00 | 94 | 1018.2 |
| 20260906161538 | 12 | 113 | 8.0 | 9.7 | 0.00 | 0.00 | 0.00 | 94 | 1018.2 |
| 20260906161008 | 12 | 112 | 8.0 | 11.3 | 0.00 | 0.00 | 0.00 | 94 | 1018.2 |
| 20260906160437 | 12 | 107 | 3.2 | 4.8 | 0.00 | 0.00 | 0.00 | 95 | 1018.1 |
| 20260906155938 | 12 | 107 | 8.0 | 9.7 | 0.00 | 0.00 | 0.00 | 95 | 1018.0 |
| 20260906155408 | 12 | 96 | 8.0 | 11.3 | 0.00 | 0.00 | 0.00 | 95 | 1018.0 |
| 20260906154838 | 12 | 98 | 3.2 | 4.8 | 0.00 | 0.00 | 0.00 | 95 | 1018.1 |
| 20260906154338 | 12 | 98 | 3.2 | 4.8 | 0.00 | 0.00 | 0.00 | 95 | 1018.1 |
| 20260906153808 | 12 | 99 | 4.8 | 4.8 | 0.00 | 0.00 | 0.00 | 95 | 1018.1 |
| 20260906153308 | 12 | 97 | 4.8 | 9.7 | 0.00 | 0.00 | 0.00 | 96 | 1018.0 |
| 20260906152808 | 12 | 95 | 3.2 | 9.7 | 0.00 | 0.00 | 0.00 | 95 | 1018.0 |
| 20260906152237 | 12 | 89 | 8.0 | 11.3 | 0.00 | 0.00 | 0.00 | 96 | 1017.9 |
| 20260906151708 | 12 | 76 | 3.2 | 8.0 | 0.00 | 0.00 | 0.00 | 96 | 1017.8 |
| 20260906151208 | 12 | 89 | 4.8 | 8.0 | 0.00 | 0.00 | 0.00 | 96 | 1017.8 |
| 20260906150638 | 12 | 82 | 4.8 | 4.8 | 0.00 | 0.00 | 0.00 | 96 | 1017.8 |
| 20260906150138 | 12 | 82 | 9.7 | 11.3 | 0.00 | 0.00 | 0.00 | 96 | 1017.9 |
| 20260906145608 | 12 | 76 | 4.8 | 12.9 | 0.00 | 0.00 | 0.00 | 96 | 1017.9 |
| 20260906145108 | 11 | 70 | 12.9 | 14.5 | 0.00 | 0.00 | 0.00 | 96 | 1017.9 |
| 20260906144608 | 11 | 74 | 4.8 | 12.9 | 0.00 | 0.00 | 0.00 | 96 | 1018.0 |
| 20260906144038 | 11 | 75 | 3.2 | 4.8 | 0.00 | 0.00 | 0.00 | 96 | 1018.0 |
| 20260906143508 | 11 | 75 | 8.0 | 11.3 | 0.00 | 0.00 | 0.00 | 96 | 1018.0 |
| 20260906143008 | 11 | 80 | 4.8 | 8.0 | 0.00 | 0.00 | 0.00 | 96 | 1018.0 |
| 20260906142438 | 11 | 77 | 4.8 | 11.3 | 0.00 | 0.00 | 0.00 | 96 | 1018.2 |
| 20260906141938 | 11 | 75 | 4.8 | 4.8 | 0.00 | 0.00 | 0.00 | 96 | 1018.2 |
| 20260906141438 | 11 | 76 | 8.0 | 11.3 | 0.00 | 0.00 | 0.00 | 96 | 1018.3 |
| 20260906140908 | 11 | 77 | 4.8 | 8.0 | 0.00 | 0.00 | 0.00 | 96 | 1018.4 |
| 20260906140408 | 11 | 82 | 3.2 | 8.0 | 0.00 | 0.00 | 0.00 | 96 | 1018.5 |
| 20260906135908 | 11 | 78 | 4.8 | 4.8 | 0.00 | 0.00 | 0.00 | 96 | 1018.5 |
| 20260906135408 | 11 | 74 | 4.8 | 8.0 | 0.00 | 0.00 | 0.00 | 96 | 1018.5 |
| 20260906134838 | 11 | 77 | 4.8 | 11.3 | 0.00 | 0.00 | 0.00 | 96 | 1018.5 |
| 20260906134338 | 11 | 80 | 1.6 | 4.8 | 0.00 | 0.00 | 0.00 | 96 | 1018.6 |
| 20260906133808 | 11 | 80 | 3.2 | 4.8 | 0.00 | 0.00 | 0.00 | 96 | 1018.6 |
| 20260906133238 | 11 | 80 | 1.6 | 3.2 | 0.00 | 0.00 | 0.00 | 96 | 1018.5 |
| 20260906132708 | 11 | 80 | 1.6 | 3.2 | 0.00 | 0.00 | 0.00 | 96 | 1018.5 |
| 20260906132208 | 11 | 80 | 1.6 | 4.8 | 0.00 | 0.00 | 0.00 | 96 | 1018.5 |
| 20260906131638 | 11 | 80 | 1.6 | 3.2 | 0.00 | 0.00 | 0.00 | 96 | 1018.3 |
| 20260906131138 | 11 | 80 | 3.2 | 4.8 | 0.00 | 0.00 | 0.00 | 96 | 1018.2 |
| 20260906130638 | 11 | 80 | 4.8 | 8.0 | 0.00 | 0.00 | 0.00 | 96 | 1018.2 |
| 20260906130108 | 11 | 81 | 8.0 | 8.0 | 0.00 | 0.00 | 0.00 | 96 | 1018.2 |
| 20260906125538 | 11 | 84 | 3.2 | 4.8 | 0.00 | 0.00 | 0.00 | 96 | 1018.1 |
| 20260906125008 | 11 | 84 | 4.8 | 4.8 | 0.00 | 0.00 | 0.00 | 96 | 1018.1 |
| 20260906124508 | 11 | 84 | 0.0 | 0.0 | 0.00 | 0.00 | 0.00 | 96 | 1018.1 |
| 20260906124008 | 11 | 84 | 0.0 | 0.0 | 0.00 | 0.00 | 0.00 | 96 | 1018.2 |
| 20260906123508 | 11 | 84 | 0.0 | 0.0 | 0.00 | 0.00 | 0.00 | 96 | 1018.2 |
| 20260906123008 | 11 | 84 | 0.0 | 0.0 | 0.00 | 0.00 | 0.00 | 96 | 1018.3 |
| 20260906122508 | 11 | 84 | 0.0 | 0.0 | 0.00 | 0.00 | 0.00 | 96 | 1018.5 |
| 20260906121938 | 11 | 84 | 0.0 | 0.0 | 0.00 | 0.00 | 0.00 | 96 | 1018.6 |
| 20260906121408 | 11 | 84 | 0.0 | 1.6 | 0.00 | 0.00 | 0.00 | 96 | 1018.6 |
| 20260906120908 | 11 | 84 | 0.0 | 0.0 | 0.00 | 0.00 | 0.00 | 96 | 1018.8 |
| 20260906120338 | 11 | 84 | 1.6 | 1.6 | 0.00 | 0.00 | 0.00 | 96 | 1018.8 |
| 20260906115838 | 11 | 84 | 1.6 | 3.2 | 0.00 | 0.00 | 0.00 | 96 | 1019.1 |
| 20260906115308 | 11 | 84 | 1.6 | 4.8 | 0.00 | 0.00 | 0.00 | 96 | 1019.1 |
| 20260906114808 | 11 | 84 | 3.2 | 4.8 | 0.00 | 0.00 | 0.00 | 96 | 1019.1 |
| 20260906114308 | 11 | 84 | 3.2 | 4.8 | 0.00 | 0.00 | 0.00 | 96 | 1019.1 |
| 20260906113738 | 11 | 81 | 1.6 | 4.8 | 0.00 | 0.00 | 0.00 | 96 | 1019.1 |
| 20260906113238 | 11 | 80 | 3.2 | 4.8 | 0.00 | 0.00 | 0.00 | 96 | 1019.0 |
| 20260906112738 | 11 | 72 | 3.2 | 4.8 | 0.00 | 0.00 | 0.00 | 96 | 1018.8 |
| 20260906112208 | 11 | 71 | 3.2 | 4.8 | 0.00 | 0.00 | 0.00 | 96 | 1018.6 |
| 20260906111638 | 11 | 71 | 4.8 | 9.7 | 0.00 | 0.00 | 0.00 | 96 | 1018.5 |
| 20260906111138 | 11 | 71 | 3.2 | 4.8 | 0.00 | 0.00 | 0.00 | 96 | 1018.6 |
| 20260906110638 | 11 | 49 | 1.6 | 4.8 | 0.00 | 0.00 | 0.00 | 96 | 1018.8 |
| 20260906110108 | 11 | 49 | 3.2 | 4.8 | 0.00 | 0.00 | 0.00 | 96 | 1019.0 |
| 20260906105538 | 11 | 49 | 0.0 | 0.0 | 0.00 | 0.00 | 0.00 | 96 | 1019.2 |
| 20260906105038 | 11 | 49 | 1.6 | 3.2 | 0.00 | 0.00 | 0.00 | 96 | 1019.2 |
| 20260906104508 | 11 | 49 | 4.8 | 4.8 | 0.00 | 0.00 | 0.00 | 96 | 1019.1 |
| 20260906103938 | 11 | 49 | 3.2 | 4.8 | 0.00 | 0.00 | 0.00 | 96 | 1019.1 |
| 20260906103408 | 11 | 49 | 1.6 | 3.2 | 0.00 | 0.00 | 0.00 | 96 | 1019.3 |
| 20260906102838 | 11 | 49 | 4.8 | 8.0 | 0.00 | 0.00 | 0.00 | 96 | 1019.3 |
| 20260906102338 | 11 | 48 | 8.0 | 8.0 | 0.00 | 0.00 | 0.00 | 96 | 1019.3 |
| 20260906101808 | 11 | 48 | 3.2 | 4.8 | 0.00 | 0.00 | 0.00 | 96 | 1019.5 |
| 20260906101238 | 11 | 48 | 0.0 | 3.2 | 0.00 | 0.00 | 0.00 | 96 | 1019.5 |
| 20260906100708 | 11 | 48 | 3.2 | 4.8 | 0.00 | 0.00 | 0.00 | 96 | 1019.4 |
| 20260906100138 | 11 | 48 | 1.6 | 4.8 | 0.00 | 0.00 | 0.00 | 96 | 1019.6 |
| 20260906095608 | 12 | 48 | 3.2 | 4.8 | 0.00 | 0.00 | 0.00 | 96 | 1019.7 |
| 20260906095038 | 11 | 48 | 3.2 | 4.8 | 0.00 | 0.00 | 0.00 | 96 | 1019.7 |
| 20260906094538 | 11 | 48 | 1.6 | 3.2 | 0.00 | 0.00 | 0.00 | 96 | 1019.9 |
| 20260906094038 | 11 | 48 | 0.0 | 0.0 | 0.00 | 0.00 | 0.00 | 96 | 1019.8 |
| 20260906093538 | 11 | 48 | 0.0 | 0.0 | 0.00 | 0.00 | 0.00 | 96 | 1019.8 |
| 20260906093008 | 11 | 48 | 0.0 | 1.6 | 0.00 | 0.00 | 0.00 | 96 | 1019.9 |
| 20260906092508 | 11 | 48 | 1.6 | 3.2 | 0.00 | 0.00 | 0.00 | 96 | 1019.8 |
| 20260906092008 | 11 | 48 | 0.0 | 0.0 | 0.00 | 0.00 | 0.00 | 96 | 1019.9 |
| 20260906091508 | 11 | 48 | 0.0 | 0.0 | 0.00 | 0.00 | 0.00 | 96 | 1019.8 |
| 20260906090938 | 11 | 48 | 0.0 | 0.0 | 0.00 | 0.00 | 0.00 | 95 | 1019.9 |
| 20260906090408 | 11 | 48 | 0.0 | 0.0 | 0.00 | 0.00 | 0.00 | 95 | 1020.1 |
| 20260906085908 | 11 | 48 | 0.0 | 0.0 | 0.00 | 0.00 | 0.00 | 95 | 1020.2 |
| 20260906085408 | 11 | 48 | 0.0 | 0.0 | 0.00 | 0.00 | 0.00 | 95 | 1020.2 |
| 20260906084838 | 11 | 48 | 0.0 | 0.0 | 0.00 | 0.00 | 0.00 | 95 | 1020.2 |
| 20260906084308 | 11 | 48 | 0.0 | 0.0 | 0.00 | 0.00 | 0.00 | 95 | 1020.3 |
| 20260906083808 | 11 | 48 | 0.0 | 0.0 | 0.00 | 0.00 | 0.00 | 95 | 1020.2 |
| 20260906083238 | 11 | 48 | 0.0 | 0.0 | 0.00 | 0.00 | 0.00 | 95 | 1020.2 |
| 20260906082708 | 11 | 48 | 0.0 | 0.0 | 0.00 | 0.00 | 0.00 | 95 | 1020.2 |
| 20260906082208 | 11 | 48 | 0.0 | 0.0 | 0.00 | 0.00 | 0.00 | 95 | 1020.3 |
| 20260906081638 | 11 | 48 | 0.0 | 0.0 | 0.00 | 0.00 | 0.00 | 95 | 1020.3 |
| 20260906081138 | 11 | 48 | 0.0 | 0.0 | 0.00 | 0.00 | 0.00 | 95 | 1020.2 |
| 20260906080638 | 11 | 48 | 0.0 | 0.0 | 0.00 | 0.00 | 0.00 | 95 | 1020.3 |
| 20260906080108 | 11 | 48 | 1.6 | 3.2 | 0.00 | 0.00 | 0.00 | 95 | 1020.3 |
| 20260906075538 | 11 | 48 | 1.6 | 3.2 | 0.00 | 0.00 | 0.00 | 95 | 1020.4 |
| 20260906075008 | 11 | 48 | 1.6 | 3.2 | 0.00 | 0.00 | 0.00 | 95 | 1020.4 |
| 20260906074438 | 11 | 48 | 1.6 | 3.2 | 0.00 | 0.00 | 0.00 | 95 | 1020.4 |
| 20260906073938 | 11 | 48 | 0.0 | 1.6 | 0.00 | 0.00 | 0.00 | 95 | 1020.5 |
| 20260906073438 | 11 | 48 | 1.6 | 3.2 | 0.00 | 0.00 | 0.00 | 95 | 1020.5 |
| 20260906072908 | 11 | 48 | 0.0 | 0.0 | 0.00 | 0.00 | 0.00 | 95 | 1020.6 |
| 20260906072338 | 11 | 48 | 0.0 | 0.0 | 0.00 | 0.00 | 0.00 | 95 | 1020.6 |
| 20260906071838 | 11 | 48 | 0.0 | 0.0 | 0.00 | 0.00 | 0.00 | 95 | 1020.6 |
| 20260906071338 | 11 | 48 | 0.0 | 0.0 | 0.00 | 0.00 | 0.00 | 95 | 1020.5 |
| 20260906070808 | 11 | 48 | 0.0 | 0.0 | 0.00 | 0.00 | 0.00 | 95 | 1020.4 |
| 20260906070308 | 11 | 48 | 0.0 | 3.2 | 0.00 | 0.00 | 0.00 | 95 | 1020.4 |
| 20260906065738 | 11 | 48 | 0.0 | 1.6 | 0.00 | 0.00 | 0.00 | 95 | 1020.4 |
| 20260906065238 | 11 | 48 | 1.6 | 3.2 | 0.00 | 0.00 | 0.00 | 95 | 1020.3 |
| 20260906064708 | 11 | 48 | 1.6 | 3.2 | 0.00 | 0.00 | 0.00 | 95 | 1020.2 |
| 20260906064208 | 11 | 48 | 3.2 | 3.2 | 0.00 | 0.00 | 0.00 | 95 | 1020.3 |
| 20260906063638 | 11 | 48 | 3.2 | 4.8 | 0.00 | 0.00 | 0.00 | 95 | 1020.4 |
| 20260906063138 | 11 | 48 | 1.6 | 3.2 | 0.00 | 0.00 | 0.00 | 95 | 1020.4 |
| 20260906062608 | 11 | 48 | 1.6 | 3.2 | 0.00 | 0.00 | 0.00 | 95 | 1020.4 |
| 20260906062038 | 11 | 48 | 1.6 | 3.2 | 0.00 | 0.00 | 0.00 | 95 | 1020.6 |
| 20260906061538 | 11 | 48 | 1.6 | 3.2 | 0.00 | 0.00 | 0.00 | 95 | 1020.5 |
| 20260906061008 | 11 | 48 | 1.6 | 3.2 | 0.00 | 0.00 | 0.00 | 95 | 1020.4 |
| 20260906060508 | 11 | 48 | 3.2 | 4.8 | 0.00 | 0.00 | 0.00 | 95 | 1020.3 |
| 20260906060008 | 11 | 48 | 3.2 | 3.2 | 0.00 | 0.00 | 0.00 | 95 | 1020.3 |
| 20260906055438 | 11 | 48 | 3.2 | 3.2 | 0.00 | 0.00 | 0.00 | 95 | 1020.2 |
| 20260906054938 | 11 | 48 | 1.6 | 1.6 | 0.00 | 0.00 | 0.00 | 94 | 1020.3 |
| 20260906054408 | 11 | 48 | 3.2 | 4.8 | 0.00 | 0.00 | 0.00 | 94 | 1020.3 |
| 20260906053838 | 11 | 48 | 3.2 | 4.8 | 0.00 | 0.00 | 0.00 | 94 | 1020.3 |
| 20260906053338 | 11 | 48 | 3.2 | 4.8 | 0.00 | 0.00 | 0.00 | 94 | 1020.4 |
| 20260906052838 | 11 | 48 | 1.6 | 4.8 | 0.00 | 0.00 | 0.00 | 94 | 1020.5 |
| 20260906052308 | 11 | 48 | 1.6 | 3.2 | 0.00 | 0.00 | 0.00 | 94 | 1020.5 |
| 20260906051738 | 11 | 48 | 3.2 | 4.8 | 0.00 | 0.00 | 0.00 | 94 | 1020.5 |
| 20260906051208 | 11 | 48 | 3.2 | 3.2 | 0.00 | 0.00 | 0.00 | 94 | 1020.5 |
| 20260906050638 | 11 | 48 | 1.6 | 3.2 | 0.00 | 0.00 | 0.00 | 94 | 1020.4 |
| 20260906050138 | 11 | 48 | 3.2 | 4.8 | 0.00 | 0.00 | 0.00 | 94 | 1020.3 |
| 20260906045608 | 11 | 48 | 3.2 | 4.8 | 0.00 | 0.00 | 0.00 | 94 | 1020.2 |
| 20260906045108 | 11 | 48 | 3.2 | 4.8 | 0.00 | 0.00 | 0.00 | 94 | 1020.2 |
| 20260906044608 | 11 | 48 | 4.8 | 4.8 | 0.00 | 0.00 | 0.00 | 94 | 1020.3 |
| 20260906044038 | 11 | 48 | 3.2 | 4.8 | 0.00 | 0.00 | 0.00 | 94 | 1020.4 |
| 20260906043538 | 11 | 48 | 3.2 | 4.8 | 0.00 | 0.00 | 0.00 | 94 | 1020.4 |
| 20260906043008 | 11 | 48 | 4.8 | 8.0 | 0.00 | 0.00 | 0.00 | 94 | 1020.4 |
| 20260906042508 | 11 | 47 | 8.0 | 11.3 | 0.00 | 0.00 | 0.00 | 94 | 1020.3 |
| 20260906042008 | 11 | 38 | 8.0 | 14.5 | 0.00 | 0.00 | 0.00 | 94 | 1020.3 |
| 20260906041438 | 11 | 38 | 3.2 | 3.2 | 0.00 | 0.00 | 0.00 | 94 | 1020.2 |
| 20260906040938 | 11 | 38 | 3.2 | 4.8 | 0.00 | 0.00 | 0.00 | 94 | 1020.1 |
| 20260906040438 | 11 | 37 | 4.8 | 9.7 | 0.00 | 0.00 | 0.00 | 94 | 1020.1 |
| 20260906035908 | 11 | 37 | 4.8 | 8.0 | 0.00 | 0.00 | 0.00 | 94 | 1020.2 |
| 20260906035408 | 11 | 35 | 8.0 | 8.0 | 0.00 | 0.00 | 0.00 | 94 | 1020.1 |
| 20260906034908 | 11 | 29 | 3.2 | 4.8 | 0.00 | 0.00 | 0.00 | 94 | 1020.0 |
| 20260906034338 | 11 | 5 | 4.8 | 8.0 | 0.00 | 0.00 | 0.00 | 94 | 1020.0 |
| 20260906033808 | 11 | 17 | 4.8 | 4.8 | 0.00 | 0.00 | 0.00 | 94 | 1020.0 |
| 20260906033308 | 11 | 9 | 4.8 | 8.0 | 0.00 | 0.00 | 0.00 | 94 | 1020.1 |
| 20260906032808 | 11 | 0 | 8.0 | 4.8 | 0.00 | 0.00 | 0.00 | 93 | 1020.0 |
| 20260906032238 | 11 | 11 | 4.8 | 4.8 | 0.00 | 0.00 | 0.00 | 93 | 1020.1 |
| 20260906031738 | 11 | 11 | 3.2 | 4.8 | 0.00 | 0.00 | 0.00 | 93 | 1020.0 |
| 20260906031238 | 11 | 10 | 3.2 | 4.8 | 0.00 | 0.00 | 0.00 | 93 | 1020.0 |
| 20260906030708 | 11 | 6 | 3.2 | 4.8 | 0.00 | 0.00 | 0.00 | 93 | 1020.0 |
| 20260906030208 | 11 | 346 | 4.8 | 4.8 | 0.00 | 0.00 | 0.00 | 93 | 1020.0 |
| 20260906025708 | 11 | 346 | 3.2 | 4.8 | 0.00 | 0.00 | 0.00 | 93 | 1019.9 |
| 20260906025208 | 11 | 346 | 3.2 | 4.8 | 0.00 | 0.00 | 0.00 | 93 | 1019.9 |
| 20260906024708 | 11 | 346 | 3.2 | 3.2 | 0.00 | 0.00 | 0.00 | 93 | 1019.9 |
| 20260906024208 | 11 | 346 | 3.2 | 3.2 | 0.00 | 0.00 | 0.00 | 93 | 1019.8 |
| 20260906023638 | 11 | 346 | 1.6 | 3.2 | 0.00 | 0.00 | 0.00 | 93 | 1019.8 |
| 20260906023108 | 11 | 346 | 1.6 | 3.2 | 0.00 | 0.00 | 0.00 | 93 | 1019.8 |
| 20260906022538 | 11 | 347 | 3.2 | 4.8 | 0.00 | 0.00 | 0.00 | 93 | 1019.8 |
| 20260906022008 | 11 | 350 | 4.8 | 4.8 | 0.00 | 0.00 | 0.00 | 93 | 1019.8 |
| 20260906021438 | 11 | 5 | 4.8 | 4.8 | 0.00 | 0.00 | 0.00 | 93 | 1019.8 |
| 20260906020938 | 11 | 16 | 1.6 | 4.8 | 0.00 | 0.00 | 0.00 | 93 | 1019.8 |
| 20260906020408 | 11 | 16 | 1.6 | 3.2 | 0.00 | 0.00 | 0.00 | 92 | 1019.8 |
| 20260906015908 | 11 | 16 | 1.6 | 3.2 | 0.00 | 0.00 | 0.00 | 92 | 1019.8 |
| 20260906015338 | 11 | 16 | 3.2 | 4.8 | 0.00 | 0.00 | 0.00 | 92 | 1019.8 |
| 20260906014838 | 11 | 16 | 1.6 | 3.2 | 0.00 | 0.00 | 0.00 | 92 | 1019.8 |
| 20260906014308 | 11 | 16 | 3.2 | 4.8 | 0.00 | 0.00 | 0.00 | 92 | 1019.7 |
| 20260906013808 | 11 | 16 | 3.2 | 4.8 | 0.00 | 0.00 | 0.00 | 92 | 1019.7 |
| 20260906013238 | 11 | 16 | 1.6 | 3.2 | 0.00 | 0.00 | 0.00 | 91 | 1019.7 |
| 20260906012708 | 11 | 16 | 3.2 | 3.2 | 0.00 | 0.00 | 0.00 | 91 | 1019.7 |
| 20260906012208 | 12 | 16 | 1.6 | 3.2 | 0.00 | 0.00 | 0.00 | 91 | 1019.6 |
| 20260906011638 | 12 | 16 | 1.6 | 3.2 | 0.00 | 0.00 | 0.00 | 91 | 1019.6 |
| 20260906011108 | 12 | 16 | 1.6 | 3.2 | 0.00 | 0.00 | 0.00 | 91 | 1019.6 |
| 20260906010608 | 12 | 16 | 1.6 | 3.2 | 0.00 | 0.00 | 0.00 | 91 | 1019.6 |
| 20260906010108 | 12 | 16 | 3.2 | 4.8 | 0.00 | 0.00 | 0.00 | 90 | 1019.5 |
| 20260906005538 | 12 | 16 | 3.2 | 4.8 | 0.00 | 0.00 | 0.00 | 90 | 1019.5 |
| 20260906005038 | 12 | 15 | 4.8 | 4.8 | 0.00 | 0.00 | 0.00 | 90 | 1019.4 |
| 20260906004508 | 12 | 15 | 3.2 | 4.8 | 0.00 | 0.00 | 0.00 | 90 | 1019.4 |
| 20260906004008 | 12 | 20 | 4.8 | 8.0 | 0.00 | 0.00 | 0.00 | 89 | 1019.4 |
| 20260906003508 | 12 | 15 | 3.2 | 4.8 | 0.00 | 0.00 | 0.00 | 89 | 1019.3 |
| 20260906003008 | 12 | 27 | 3.2 | 4.8 | 0.00 | 0.00 | 0.00 | 89 | 1019.2 |
| 20260906002438 | 12 | 19 | 3.2 | 8.0 | 0.00 | 0.00 | 0.00 | 89 | 1019.1 |
| 20260906001938 | 12 | 5 | 4.8 | 8.0 | 0.00 | 0.00 | 0.00 | 89 | 1019.1 |
| 20260906001438 | 12 | 12 | 4.8 | 11.3 | 0.00 | 0.00 | 0.00 | 89 | 1019.0 |
| 20260906000938 | 12 | 29 | 8.0 | 8.0 | 0.00 | 0.00 | 0.00 | 89 | 1019.0 |
| 20260906000440 | 12 | 32 | 4.8 | 9.7 | 0.00 | 0.00 | 0.00 | 89 | 1018.9 |
| 20260905235938 | 12 | 34 | 4.8 | 8.0 | 0.00 | 0.00 | 0.00 | 89 | 1018.7 |
| 20260905235408 | 12 | 35 | 8.0 | 16.1 | 0.00 | 0.00 | 0.00 | 89 | 1018.7 |
| 20260905234908 | 12 | 18 | 4.8 | 4.8 | 0.00 | 0.00 | 0.00 | 89 | 1018.7 |
| 20260905234408 | 12 | 16 | 8.0 | 12.9 | 0.00 | 0.00 | 0.00 | 89 | 1018.8 |
| 20260905233908 | 12 | 28 | 8.0 | 11.3 | 0.00 | 0.00 | 0.00 | 89 | 1018.7 |
| 20260905233338 | 12 | 358 | 11.3 | 12.9 | 0.00 | 0.00 | 0.00 | 88 | 1018.7 |
| 20260905232808 | 12 | 13 | 8.0 | 14.5 | 0.00 | 0.00 | 0.00 | 88 | 1018.7 |
| 20260905232308 | 12 | 13 | 8.0 | 8.0 | 0.00 | 0.00 | 0.00 | 88 | 1018.6 |
| 20260905231738 | 12 | 19 | 8.0 | 11.3 | 0.00 | 0.00 | 0.00 | 88 | 1018.6 |
| 20260905231208 | 12 | 34 | 8.0 | 11.3 | 0.00 | 0.00 | 0.00 | 88 | 1018.6 |
| 20260905230638 | 12 | 22 | 8.0 | 11.3 | 0.00 | 0.00 | 0.00 | 88 | 1018.6 |
| 20260905230138 | 12 | 15 | 8.0 | 11.3 | 0.00 | 0.00 | 0.00 | 88 | 1018.6 |